Time;durP1;ratioP1;P1;durP2;ratioP2;P2;SDS_P1;SDS_P2;PMS_P1;PMS_P2;Temp;Humidity;BMP_temperature;BMP_pressure;BME280_temperature;BME280_humidity;BME280_pressure;Samples;Min_cycle;Max_cycle;Signal;HPM_P1;HPM_P2
2021/10/15 00:00:14;;;;;;;3.33;1.20;;;;;;;26.96;19.25;98547.41;5086585;28;20060;-79
2021/10/15 00:02:40;;;;;;;3.45;1.23;;;;;;;27.24;19.22;98546.66;5088519;28;20031;-79
2021/10/15 00:05:07;;;;;;;0.82;0.73;;;;;;;26.99;19.71;98543.72;5087255;28;20454;-79
2021/10/15 00:07:33;;;;;;;1.67;1.08;;;;;;;26.95;19.63;98537.38;5077737;28;20107;-79
2021/10/15 00:09:59;;;;;;;1.30;0.85;;;;;;;27.21;19.49;98544.75;5088108;28;20119;-79
2021/10/15 00:12:25;;;;;;;3.42;1.42;;;;;;;27.36;19.39;98538.25;5093687;28;20039;-79
2021/10/15 00:14:51;;;;;;;1.73;0.90;;;;;;;27.38;19.33;98546.28;5081328;28;20035;-79
2021/10/15 00:17:17;;;;;;;0.95;0.75;;;;;;;27.67;19.28;98547.06;5088726;28;20016;-79
2021/10/15 00:19:44;;;;;;;1.05;0.90;;;;;;;27.91;18.75;98542.72;5090579;28;20051;-79
2021/10/15 00:22:11;;;;;;;1.40;0.90;;;;;;;27.90;18.77;98546.00;5090257;28;20028;-79
2021/10/15 00:24:37;;;;;;;1.58;0.80;;;;;;;28.00;18.69;98547.75;5089170;28;20039;-79
2021/10/15 00:27:03;;;;;;;1.27;0.90;;;;;;;28.04;18.52;98542.78;5083943;28;20036;-79
2021/10/15 00:29:29;;;;;;;1.13;0.75;;;;;;;28.16;18.63;98535.56;5080753;28;20036;-79
2021/10/15 00:31:55;;;;;;;1.35;0.75;;;;;;;28.26;18.41;98540.09;5082931;28;20035;-79
2021/10/15 00:34:21;;;;;;;1.75;0.90;;;;;;;28.15;18.61;98540.41;5087548;28;20032;-79
2021/10/15 00:36:47;;;;;;;0.90;0.70;;;;;;;28.03;18.78;98533.50;5088517;28;20557;-79
2021/10/15 00:39:13;;;;;;;0.85;0.80;;;;;;;28.03;18.60;98533.50;5085237;28;20077;-79
2021/10/15 00:41:40;;;;;;;1.60;0.98;;;;;;;28.00;18.73;98540.06;5087089;28;20042;-79
2021/10/15 00:44:08;;;;;;;1.42;0.75;;;;;;;27.77;18.72;98526.19;5085867;28;20096;-79
2021/10/15 00:46:36;;;;;;;1.75;0.70;;;;;;;27.92;18.97;98521.72;5081351;28;20060;-79
2021/10/15 00:49:07;;;;;;;1.25;0.80;;;;;;;27.83;19.38;98518.78;5081549;28;20038;-79
2021/10/15 00:51:33;;;;;;;3.58;0.90;;;;;;;27.95;18.60;98520.03;5085059;28;20039;-79
2021/10/15 00:54:00;;;;;;;0.93;0.70;;;;;;;27.87;19.04;98515.84;5091478;28;20036;-79
2021/10/15 00:56:29;;;;;;;1.50;0.73;;;;;;;28.03;18.73;98510.91;5083640;28;20086;-79
2021/10/15 00:58:55;;;;;;;1.10;0.82;;;;;;;27.83;19.01;98513.13;5083221;28;20033;-79
2021/10/15 01:01:22;;;;;;;1.67;0.60;;;;;;;27.93;19.00;98508.41;5091288;28;20073;-79
2021/10/15 01:03:48;;;;;;;0.73;0.68;;;;;;;27.90;19.39;98506.47;5084440;28;20032;-79
2021/10/15 01:06:14;;;;;;;1.58;0.70;;;;;;;28.09;19.01;98499.88;5083909;28;20028;-79
2021/10/15 01:08:44;;;;;;;0.63;0.55;;;;;;;27.86;19.33;98502.97;5088730;28;20500;-79
2021/10/15 01:11:12;;;;;;;0.80;0.60;;;;;;;27.84;19.05;98503.41;5077978;28;20032;-79
2021/10/15 01:13:39;;;;;;;1.63;0.82;;;;;;;27.77;19.00;98505.69;5080202;28;20043;-79
2021/10/15 01:16:09;;;;;;;0.82;0.70;;;;;;;27.89;19.14;98500.03;5082089;28;20650;-79
2021/10/15 01:18:35;;;;;;;0.87;0.70;;;;;;;28.11;18.67;98490.94;5086319;28;20036;-79
2021/10/15 01:21:03;;;;;;;1.00;0.80;;;;;;;28.21;18.47;98501.91;5078690;28;20332;-79
2021/10/15 01:23:30;;;;;;;1.83;0.70;;;;;;;28.03;18.44;98493.97;5094282;28;20028;-79
2021/10/15 01:25:56;;;;;;;0.73;0.60;;;;;;;27.46;19.74;98499.75;5079779;28;20039;-79
2021/10/15 01:28:24;;;;;;;2.25;1.10;;;;;;;27.30;19.71;98491.31;5081375;28;20028;-79
2021/10/15 01:30:50;;;;;;;0.70;0.50;;;;;;;27.36;19.57;98489.53;5082228;28;20036;-79
2021/10/15 01:33:17;;;;;;;0.68;0.60;;;;;;;27.58;19.26;98479.25;5088625;28;20039;-79
2021/10/15 01:35:43;;;;;;;0.90;0.60;;;;;;;27.68;19.13;98475.28;5078044;28;20098;-79
2021/10/15 01:38:10;;;;;;;2.10;0.57;;;;;;;27.90;19.08;98481.88;5085624;28;20116;-79
2021/10/15 01:40:36;;;;;;;0.55;0.50;;;;;;;27.75;19.32;98480.72;5082876;28;20036;-79
2021/10/15 01:43:03;;;;;;;0.70;0.50;;;;;;;27.63;19.36;98487.16;5085825;28;20040;-79
2021/10/15 01:45:31;;;;;;;0.90;0.60;;;;;;;27.58;19.50;98481.25;5084363;28;20126;-79
2021/10/15 01:47:58;;;;;;;1.15;0.50;;;;;;;27.81;19.24;98478.94;5077658;28;20482;-79
2021/10/15 01:50:25;;;;;;;1.25;0.50;;;;;;;27.81;19.19;98476.13;5088910;28;20036;-79
2021/10/15 01:52:52;;;;;;;1.58;0.50;;;;;;;27.76;19.21;98479.50;5079791;28;20044;-79
2021/10/15 01:55:18;;;;;;;0.60;0.60;;;;;;;27.64;19.35;98482.28;5081421;28;20401;-79
2021/10/15 01:57:45;;;;;;;1.20;0.30;;;;;;;27.67;19.54;98472.94;5084330;28;20452;-79
2021/10/15 02:00:14;;;;;;;0.60;0.40;;;;;;;27.80;19.30;98466.06;5086062;28;20044;-79
2021/10/15 02:02:42;;;;;;;0.30;0.30;;;;;;;28.02;19.38;98471.84;5086067;28;20028;-79
2021/10/15 02:05:11;;;;;;;0.93;0.50;;;;;;;27.76;19.56;98468.19;5074174;28;20056;-78
2021/10/15 02:07:38;;;;;;;1.02;0.65;;;;;;;27.84;19.30;98465.97;5081828;28;20489;-79
2021/10/15 02:10:06;;;;;;;0.77;0.43;;;;;;;28.03;19.31;98470.59;5083597;28;20029;-79
2021/10/15 02:12:32;;;;;;;0.50;0.50;;;;;;;28.20;19.13;98471.28;5077354;28;20123;-79
2021/10/15 02:14:58;;;;;;;0.85;0.70;;;;;;;27.83;19.44;98459.50;5078534;28;20028;-79
2021/10/15 02:17:24;;;;;;;0.40;0.40;;;;;;;27.37;19.84;98452.47;5079631;28;20039;-79
2021/10/15 02:19:50;;;;;;;0.95;0.50;;;;;;;27.21;20.31;98463.75;5079714;28;20067;-79
2021/10/15 02:22:16;;;;;;;0.43;0.43;;;;;;;27.17;20.07;98459.44;5082339;28;20028;-79
2021/10/15 02:24:42;;;;;;;0.73;0.45;;;;;;;27.40;20.15;98454.38;5092290;28;20043;-79
2021/10/15 02:27:08;;;;;;;1.10;0.52;;;;;;;27.42;20.10;98447.50;5077255;28;20068;-79
2021/10/15 02:29:35;;;;;;;0.50;0.50;;;;;;;27.51;20.22;98450.44;5079755;28;20036;-79
2021/10/15 02:32:01;;;;;;;0.30;0.30;;;;;;;27.86;19.54;98447.34;5080341;28;20397;-79
2021/10/15 02:34:27;;;;;;;0.40;0.40;;;;;;;28.03;19.33;98448.00;5084877;28;20508;-79
2021/10/15 02:36:53;;;;;;;0.30;0.30;;;;;;;27.54;19.88;98450.31;5078517;28;20028;-79
2021/10/15 02:39:19;;;;;;;0.40;0.40;;;;;;;27.28;20.42;98445.88;5080470;28;20569;-79
2021/10/15 02:41:45;;;;;;;0.55;0.40;;;;;;;27.81;19.83;98444.28;5085378;28;20081;-78
2021/10/15 02:44:13;;;;;;;0.40;0.30;;;;;;;28.08;19.45;98442.59;5074832;28;20501;-78
2021/10/15 02:46:40;;;;;;;0.50;0.50;;;;;;;28.31;19.24;98449.91;5074909;28;20039;-79
2021/10/15 02:49:07;;;;;;;0.50;0.30;;;;;;;28.41;19.30;98445.16;5076453;28;20114;-80
2021/10/15 02:51:34;;;;;;;0.32;0.30;;;;;;;28.56;19.05;98447.06;5080737;28;20115;-79
2021/10/15 02:54:01;;;;;;;0.20;0.20;;;;;;;28.56;18.75;98440.63;5078829;28;20545;-79
2021/10/15 02:56:27;;;;;;;0.65;0.30;;;;;;;28.55;19.01;98448.28;5074492;28;20582;-79
2021/10/15 02:58:53;;;;;;;0.30;0.20;;;;;;;28.40;19.28;98450.00;5078741;28;20071;-79
2021/10/15 03:01:19;;;;;;;0.40;0.40;;;;;;;27.98;19.48;98443.69;5078317;28;22056;-79
2021/10/15 03:03:45;;;;;;;0.70;0.40;;;;;;;27.50;20.14;98448.84;5061126;28;20031;-79
2021/10/15 03:06:11;;;;;;;0.65;0.65;;;;;;;27.36;20.05;98452.84;5071563;28;20028;-79
2021/10/15 03:08:38;;;;;;;0.40;0.40;;;;;;;27.40;20.15;98451.53;5081247;28;20032;-79
2021/10/15 03:11:04;;;;;;;0.40;0.30;;;;;;;27.81;19.88;98450.72;5078896;28;20040;-79
2021/10/15 03:13:30;;;;;;;0.30;0.30;;;;;;;28.01;19.67;98447.69;5078939;28;20028;-79
2021/10/15 03:15:56;;;;;;;0.20;0.20;;;;;;;28.18;19.68;98454.00;5074822;28;20035;-79
2021/10/15 03:18:24;;;;;;;0.38;0.38;;;;;;;28.54;19.06;98448.75;5079339;28;20085;-79
2021/10/15 03:20:50;;;;;;;0.63;0.20;;;;;;;28.75;18.99;98450.88;5075035;28;20036;-79
2021/10/15 03:23:16;;;;;;;0.70;0.40;;;;;;;28.48;19.13;98439.25;5081061;28;20056;-79
2021/10/15 03:25:42;;;;;;;0.30;0.30;;;;;;;28.48;19.48;98444.91;5075737;28;20036;-79
2021/10/15 03:28:09;;;;;;;0.50;0.30;;;;;;;28.72;19.19;98444.09;5074680;28;20068;-79
2021/10/15 03:30:35;;;;;;;0.30;0.30;;;;;;;28.78;18.99;98440.69;5073928;28;20021;-79
2021/10/15 03:33:03;;;;;;;0.32;0.30;;;;;;;28.71;19.01;98430.41;5072655;28;20394;-79
2021/10/15 03:35:29;;;;;;;0.30;0.30;;;;;;;28.60;19.10;98438.47;5076421;28;20031;-79
2021/10/15 03:37:55;;;;;;;0.57;0.30;;;;;;;28.39;19.53;98439.19;5081382;28;20093;-79
2021/10/15 03:40:21;;;;;;;0.50;0.30;;;;;;;28.56;19.04;98434.97;5078821;28;20040;-79
2021/10/15 03:42:47;;;;;;;0.52;0.20;;;;;;;28.71;19.28;98436.06;5080420;28;20435;-80
2021/10/15 03:45:14;;;;;;;0.68;0.28;;;;;;;28.76;19.20;98438.31;5077087;28;20036;-80
2021/10/15 03:47:40;;;;;;;0.30;0.30;;;;;;;28.43;19.79;98434.19;5080991;28;20037;-79
2021/10/15 03:50:08;;;;;;;0.20;0.20;;;;;;;28.33;19.53;98444.63;5077486;28;20036;-80
2021/10/15 03:52:35;;;;;;;2.13;0.63;;;;;;;28.41;19.46;98442.31;5078547;28;20401;-80
2021/10/15 03:55:01;;;;;;;0.40;0.40;;;;;;;28.26;20.02;98441.25;5080217;28;20032;-80
2021/10/15 03:57:28;;;;;;;0.20;0.20;;;;;;;28.30;19.82;98445.53;5083281;28;20595;-79
2021/10/15 03:59:54;;;;;;;0.30;0.30;;;;;;;28.32;19.67;98443.03;5086350;28;20024;-80
2021/10/15 04:02:20;;;;;;;0.40;0.32;;;;;;;28.35;19.56;98447.78;5076922;28;20051;-80
2021/10/15 04:04:46;;;;;;;0.30;0.30;;;;;;;28.45;19.36;98445.84;5083311;28;20032;-80
2021/10/15 04:07:12;;;;;;;0.13;0.13;;;;;;;28.43;19.39;98445.47;5084836;28;20041;-79
2021/10/15 04:09:38;;;;;;;0.25;0.25;;;;;;;28.37;19.40;98448.13;5083021;28;20085;-79
2021/10/15 04:12:05;;;;;;;1.65;0.30;;;;;;;28.43;19.05;98437.00;5083646;28;20085;-80
2021/10/15 04:14:31;;;;;;;0.30;0.30;;;;;;;28.46;19.14;98436.09;5076543;28;20490;-80
2021/10/15 04:16:57;;;;;;;0.60;0.40;;;;;;;28.50;19.38;98439.59;5080551;28;20032;-80
2021/10/15 04:19:23;;;;;;;1.15;0.20;;;;;;;28.56;19.49;98434.97;5076897;28;20089;-80
2021/10/15 04:21:49;;;;;;;0.32;0.30;;;;;;;28.32;20.12;98443.03;5081893;28;20199;-80
2021/10/15 04:24:15;;;;;;;0.35;0.30;;;;;;;28.19;20.02;98441.47;5088442;28;20028;-80
2021/10/15 04:26:41;;;;;;;0.40;0.30;;;;;;;28.07;19.97;98434.59;5082270;28;20040;-80
2021/10/15 04:29:07;;;;;;;0.25;0.25;;;;;;;27.95;20.47;98430.50;5077133;28;20056;-80
2021/10/15 04:31:33;;;;;;;0.20;0.20;;;;;;;27.83;20.56;98438.97;5083900;28;20047;-80
2021/10/15 04:33:59;;;;;;;0.30;0.20;;;;;;;27.79;20.06;98441.91;5079016;28;20041;-80
2021/10/15 04:36:25;;;;;;;0.20;0.20;;;;;;;28.01;20.29;98433.56;5088104;28;20418;-80
2021/10/15 04:38:51;;;;;;;0.40;0.30;;;;;;;28.17;19.89;98427.03;5076954;28;20070;-80
2021/10/15 04:41:17;;;;;;;0.20;0.20;;;;;;;27.95;19.76;98435.34;5091611;28;20057;-79
2021/10/15 04:43:43;;;;;;;0.30;0.20;;;;;;;27.95;19.73;98432.53;5080186;28;20024;-79
2021/10/15 04:46:09;;;;;;;0.40;0.20;;;;;;;27.99;20.06;98436.84;5075536;28;20036;-79
2021/10/15 04:48:35;;;;;;;0.20;0.20;;;;;;;28.25;19.54;98429.16;5076970;28;20031;-80
2021/10/15 04:51:02;;;;;;;0.22;0.22;;;;;;;28.36;19.49;98423.91;5092600;28;20043;-79
2021/10/15 04:53:29;;;;;;;1.35;0.40;;;;;;;28.51;19.51;98415.75;5086330;28;20593;-79
2021/10/15 04:55:55;;;;;;;0.43;0.43;;;;;;;28.47;19.35;98418.69;5083021;28;20029;-80
2021/10/15 04:58:21;;;;;;;0.40;0.30;;;;;;;28.44;19.78;98416.00;5075430;28;20043;-80
2021/10/15 05:00:47;;;;;;;0.30;0.30;;;;;;;28.21;19.73;98413.56;5078445;28;20043;-80
2021/10/15 05:03:13;;;;;;;0.38;0.35;;;;;;;27.97;19.97;98416.72;5077358;28;20048;-80
2021/10/15 05:05:43;;;;;;;0.65;0.50;;;;;;;27.94;19.89;98420.44;5079613;28;20040;-80
2021/10/15 05:08:11;;;;;;;0.52;0.30;;;;;;;28.04;20.07;98419.34;5083691;28;20497;-80
2021/10/15 05:10:41;;;;;;;0.57;0.40;;;;;;;28.14;19.98;98411.78;5084036;28;20039;-79
2021/10/15 05:13:07;;;;;;;0.35;0.30;;;;;;;28.25;19.80;98412.19;5085037;28;20028;-79
2021/10/15 05:15:33;;;;;;;1.20;0.47;;;;;;;28.44;19.34;98416.78;5088096;28;20458;-79
2021/10/15 05:17:59;;;;;;;0.20;0.20;;;;;;;28.11;19.96;98417.53;5086030;28;20032;-79
2021/10/15 05:20:25;;;;;;;1.05;0.38;;;;;;;27.95;20.07;98422.03;5085384;28;20022;-79
2021/10/15 05:22:51;;;;;;;0.80;0.57;;;;;;;27.74;20.16;98419.09;5084350;28;20111;-80
2021/10/15 05:25:18;;;;;;;0.40;0.40;;;;;;;27.67;20.00;98422.13;5074169;28;20106;-79
2021/10/15 05:27:44;;;;;;;0.80;0.65;;;;;;;27.60;20.26;98419.53;5078295;28;20112;-80
2021/10/15 05:30:11;;;;;;;0.60;0.35;;;;;;;27.77;20.13;98415.38;5074161;28;20078;-79
2021/10/15 05:32:38;;;;;;;0.40;0.40;;;;;;;28.14;19.72;98406.13;5076815;28;20532;-80
2021/10/15 05:35:06;;;;;;;0.52;0.40;;;;;;;28.08;19.98;98408.72;5089379;28;20044;-80
2021/10/15 05:37:32;;;;;;;0.35;0.35;;;;;;;28.29;19.44;98400.78;5074383;28;20033;-80
2021/10/15 05:39:58;;;;;;;0.85;0.50;;;;;;;28.72;19.19;98407.38;5083552;28;20036;-80
2021/10/15 05:42:24;;;;;;;0.98;0.40;;;;;;;28.87;19.06;98396.31;5076128;28;20024;-80
2021/10/15 05:44:50;;;;;;;5.90;2.65;;;;;;;28.67;19.20;98402.28;5086274;28;20039;-80
2021/10/15 05:47:16;;;;;;;1.48;0.43;;;;;;;28.47;19.44;98407.41;5079168;28;20486;-80
2021/10/15 05:49:42;;;;;;;2.75;1.58;;;;;;;28.67;19.51;98405.13;5074588;28;20032;-80
2021/10/15 05:52:12;;;;;;;6.60;3.65;;;;;;;28.63;20.10;98403.66;5091784;28;20048;-80
2021/10/15 05:54:55;;;;;;;1.42;0.90;;;;;;;28.78;19.64;98401.91;5082641;28;20043;-79
2021/10/15 06:00:10;;;;;;;1.48;1.02;;;;;;;28.96;19.79;98398.44;5094097;28;20036;-80
2021/10/15 06:02:38;;;;;;;1.13;0.60;;;;;;;28.94;19.77;98398.88;5079701;28;20060;-80
2021/10/15 06:14:13;;;;;;;1.27;0.50;;;;;;;29.56;19.20;98399.00;5091183;28;20508;-80
2021/10/15 06:16:18;;;;;;;2.20;1.08;;;;;;;29.11;20.21;98402.31;5092963;28;20405;-80
2021/10/15 06:18:52;;;;;;;2.42;1.30;;;;;;;29.06;20.02;98394.41;5091311;28;20039;-80
2021/10/15 06:21:19;;;;;;;2.08;0.98;;;;;;;29.12;20.23;98396.22;5093206;28;20111;-79
2021/10/15 06:23:45;;;;;;;2.60;1.10;;;;;;;28.78;20.65;98393.41;5090252;28;20024;-79
2021/10/15 06:26:11;;;;;;;1.33;0.70;;;;;;;28.67;20.89;98393.00;5092604;28;20116;-80
2021/10/15 06:28:37;;;;;;;1.38;0.80;;;;;;;28.44;20.92;98393.41;5092936;28;20385;-80
2021/10/15 06:31:03;;;;;;;1.67;1.02;;;;;;;28.32;20.88;98388.56;5092635;28;20469;-80
2021/10/15 06:33:29;;;;;;;0.80;0.70;;;;;;;28.64;21.18;98394.72;5092728;28;20028;-80
2021/10/15 06:35:55;;;;;;;1.95;0.73;;;;;;;28.77;20.24;98391.06;5087823;28;20066;-80
2021/10/15 06:38:21;;;;;;;0.63;0.60;;;;;;;29.05;20.03;98396.47;5092423;28;20389;-80
2021/10/15 06:40:47;;;;;;;0.70;0.50;;;;;;;29.25;20.58;98384.84;5091310;28;20115;-80
2021/10/15 06:43:13;;;;;;;0.52;0.38;;;;;;;29.30;20.17;98387.06;5091325;28;20032;-80
2021/10/15 06:45:39;;;;;;;0.95;0.60;;;;;;;29.79;20.59;98387.19;5089849;28;20122;-80
2021/10/15 06:48:06;;;;;;;3.22;0.50;;;;;;;30.07;19.69;98386.81;5092554;28;20088;-79
2021/10/15 06:50:32;;;;;;;0.98;0.40;;;;;;;30.18;19.20;98382.75;5086154;28;20043;-79
2021/10/15 06:52:58;;;;;;;0.85;0.60;;;;;;;29.94;19.83;98388.97;5081913;28;20040;-80
2021/10/15 06:55:24;;;;;;;0.70;0.50;;;;;;;30.09;19.81;98383.50;5092170;28;20056;-80
2021/10/15 06:57:51;;;;;;;0.73;0.40;;;;;;;30.17;20.02;98381.97;5088637;28;20063;-79
2021/10/15 07:00:18;;;;;;;3.10;0.52;;;;;;;30.20;19.56;98383.06;5091199;28;20035;-80
2021/10/15 07:02:45;;;;;;;0.98;0.73;;;;;;;30.29;19.68;98386.72;5092752;28;20029;-79
2021/10/15 07:05:12;;;;;;;1.13;0.70;;;;;;;30.54;19.21;98392.13;5092577;28;20038;-79
2021/10/15 07:07:39;;;;;;;0.88;0.50;;;;;;;30.61;19.41;98376.84;5092799;28;20114;-79
2021/10/15 07:10:06;;;;;;;0.93;0.68;;;;;;;30.57;19.81;98394.00;5079544;28;20032;-79
2021/10/15 07:12:39;;;;;;;0.77;0.50;;;;;;;30.81;19.29;98384.91;5072829;28;20037;-79
2021/10/15 07:15:07;;;;;;;2.47;0.90;;;;;;;30.53;18.91;98369.91;5073822;28;20024;-80
2021/10/15 07:17:33;;;;;;;2.47;0.63;;;;;;;30.57;19.51;98377.00;5072777;28;20028;-80
2021/10/15 07:19:59;;;;;;;0.55;0.55;;;;;;;30.74;18.79;98374.63;5072273;28;20041;-80
2021/10/15 07:22:25;;;;;;;1.17;0.47;;;;;;;30.83;19.40;98379.53;5072658;28;20112;-80
2021/10/15 07:24:52;;;;;;;0.40;0.40;;;;;;;31.13;19.43;98372.91;5072666;28;20036;-80
2021/10/15 07:27:19;;;;;;;0.70;0.52;;;;;;;31.44;18.79;98364.97;5091303;28;20075;-80
2021/10/15 07:29:45;;;;;;;2.88;0.63;;;;;;;31.42;18.76;98371.13;5096536;28;20106;-79
2021/10/15 07:32:11;;;;;;;3.20;1.48;;;;;;;31.53;18.98;98367.00;5095628;28;20378;-80
2021/10/15 07:34:38;;;;;;;2.13;0.85;;;;;;;31.38;18.42;98359.16;5096662;28;20028;-79
2021/10/15 07:37:04;;;;;;;1.00;0.50;;;;;;;31.11;18.75;98361.25;5096667;28;20020;-80
2021/10/15 07:39:30;;;;;;;1.35;1.02;;;;;;;31.17;18.46;98365.81;5093721;28;20484;-80
2021/10/15 07:41:57;;;;;;;2.55;1.55;;;;;;;31.57;18.93;98364.78;5086143;28;20547;-80
2021/10/15 07:44:23;;;;;;;1.65;1.10;;;;;;;31.88;17.79;98365.28;5077201;28;20024;-80
2021/10/15 07:46:49;;;;;;;1.80;0.95;;;;;;;31.95;17.88;98374.22;5076774;28;20025;-80
2021/10/15 07:49:15;;;;;;;1.33;0.80;;;;;;;31.76;18.12;98364.25;5076156;28;20100;-80
2021/10/15 07:51:41;;;;;;;1.52;0.73;;;;;;;31.76;18.38;98372.75;5075649;28;20033;-80
2021/10/15 07:54:08;;;;;;;0.73;0.47;;;;;;;31.85;18.24;98369.09;5077118;28;20045;-80
2021/10/15 07:56:34;;;;;;;1.27;0.93;;;;;;;31.65;18.75;98372.47;5089609;28;20039;-80
2021/10/15 07:59:01;;;;;;;0.98;0.63;;;;;;;31.86;17.96;98377.13;5096135;28;20051;-80
2021/10/15 08:01:27;;;;;;;1.20;0.63;;;;;;;31.83;17.98;98365.94;5085833;28;20035;-80
2021/10/15 08:03:53;;;;;;;1.05;0.68;;;;;;;32.04;18.52;98360.00;5095783;28;20036;-80
2021/10/15 08:06:20;;;;;;;0.63;0.40;;;;;;;32.08;17.96;98365.50;5089946;28;20036;-80
2021/10/15 08:08:48;;;;;;;0.85;0.40;;;;;;;32.06;18.27;98357.50;5084928;28;20043;-80
2021/10/15 08:11:14;;;;;;;0.52;0.45;;;;;;;31.86;18.55;98360.06;5085034;28;20043;-80
2021/10/15 08:13:40;;;;;;;0.98;0.60;;;;;;;32.01;18.29;98349.63;5079613;28;20040;-80
2021/10/15 08:16:06;;;;;;;0.47;0.30;;;;;;;31.90;18.15;98346.47;5094389;28;20145;-80
2021/10/15 08:18:33;;;;;;;0.70;0.60;;;;;;;32.19;17.87;98342.22;5088348;28;20126;-80
2021/10/15 08:20:59;;;;;;;0.50;0.40;;;;;;;32.40;17.23;98339.09;5077581;28;20072;-80
2021/10/15 08:23:27;;;;;;;0.35;0.20;;;;;;;31.85;17.82;98346.38;5076148;28;20123;-80
2021/10/15 08:25:54;;;;;;;0.57;0.50;;;;;;;31.89;18.15;98344.13;5075351;28;20060;-80
2021/10/15 08:28:21;;;;;;;0.47;0.47;;;;;;;31.80;17.90;98342.13;5075342;28;20044;-80
2021/10/15 08:30:47;;;;;;;0.90;0.50;;;;;;;31.51;18.04;98344.00;5091904;28;20032;-80
2021/10/15 08:33:13;;;;;;;0.43;0.40;;;;;;;30.69;18.57;98338.44;5075660;28;20791;-80
2021/10/15 08:35:39;;;;;;;0.35;0.30;;;;;;;30.96;18.60;98341.25;5079273;28;20028;-80
2021/10/15 08:38:06;;;;;;;0.68;0.50;;;;;;;30.27;19.14;98329.72;5090000;28;20039;-80
2021/10/15 08:40:32;;;;;;;2.33;0.50;;;;;;;29.79;19.43;98344.72;5085288;28;20457;-80
2021/10/15 08:42:58;;;;;;;0.60;0.45;;;;;;;29.89;19.72;98332.19;5094048;28;20047;-80
2021/10/15 08:45:27;;;;;;;0.40;0.30;;;;;;;30.42;19.32;98336.38;5095224;28;20028;-80
2021/10/15 08:47:54;;;;;;;1.90;1.02;;;;;;;30.18;19.42;98334.59;5093330;28;20052;-80
2021/10/15 08:50:21;;;;;;;0.70;0.50;;;;;;;29.91;19.45;98332.50;5089079;28;20036;-80
2021/10/15 08:52:48;;;;;;;0.40;0.40;;;;;;;30.05;19.43;98332.69;5083046;28;20391;-81
2021/10/15 08:55:15;;;;;;;1.75;0.45;;;;;;;30.61;19.23;98332.28;5085943;28;20061;-80
2021/10/15 08:57:52;;;;;;;0.80;0.40;;;;;;;29.88;19.73;98324.91;5094177;28;20036;-80
2021/10/15 09:00:21;;;;;;;1.20;0.60;;;;;;;30.43;19.39;98331.50;5093982;28;20115;-80
2021/10/15 09:03:17;;;;;;;1.23;0.73;;;;;;;30.62;19.02;98328.19;5093398;28;20043;-80
2021/10/15 09:06:05;;;;;;;1.02;0.63;;;;;;;29.48;19.65;98318.50;5093062;28;20067;-80
2021/10/15 09:08:49;;;;;;;0.50;0.40;;;;;;;29.25;20.10;98322.59;5093592;28;20036;-80
2021/10/15 09:11:32;;;;;;;1.45;0.40;;;;;;;29.91;19.56;98321.16;5074794;28;20040;-80
2021/10/15 09:14:15;;;;;;;0.73;0.70;;;;;;;30.52;19.49;98335.13;5075397;28;20044;-80
2021/10/15 09:17:17;;;;;;;0.68;0.57;;;;;;;31.00;18.48;98327.69;5074221;28;20028;-80
2021/10/15 09:19:51;;;;;;;1.40;0.40;;;;;;;30.98;18.30;98320.94;5074441;28;20032;-80
2021/10/15 09:22:31;;;;;;;1.40;0.30;;;;;;;30.67;19.25;98323.94;5074693;28;20474;-79
2021/10/15 09:24:58;;;;;;;1.15;0.47;;;;;;;30.40;19.03;98323.94;5093545;28;20420;-79
2021/10/15 09:27:36;;;;;;;1.08;0.35;;;;;;;30.68;18.99;98325.50;5088734;28;20374;-80
2021/10/15 09:30:10;;;;;;;0.40;0.30;;;;;;;31.16;19.13;98313.16;5094404;28;20039;-80
2021/10/15 09:32:50;;;;;;;0.70;0.55;;;;;;;31.14;19.29;98324.19;5089828;28;20068;-79
2021/10/15 09:35:20;;;;;;;1.00;0.77;;;;;;;31.65;18.02;98324.19;5080934;28;20041;-79
2021/10/15 09:37:48;;;;;;;0.80;0.50;;;;;;;31.59;18.31;98311.94;5088216;28;20028;-80
2021/10/15 09:40:18;;;;;;;0.30;0.30;;;;;;;31.21;18.67;98309.69;5082190;28;20507;-79
2021/10/15 09:42:53;;;;;;;0.50;0.40;;;;;;;31.29;18.43;98307.31;5083377;28;20079;-79
2021/10/15 09:45:22;;;;;;;0.75;0.40;;;;;;;30.86;18.82;98305.63;5073648;28;20048;-79
2021/10/15 09:48:00;;;;;;;0.30;0.30;;;;;;;30.96;18.65;98295.88;5082931;28;20490;-79
2021/10/15 09:50:28;;;;;;;0.38;0.20;;;;;;;31.45;18.34;98300.50;5092369;28;20039;-79
2021/10/15 09:53:00;;;;;;;0.70;0.30;;;;;;;32.03;18.14;98301.63;5089938;28;20077;-79
2021/10/15 09:55:34;;;;;;;0.90;0.52;;;;;;;32.17;17.61;98297.25;5094144;28;20115;-79
2021/10/15 09:58:17;;;;;;;0.60;0.40;;;;;;;32.19;17.56;98294.72;5091673;28;20032;-79
2021/10/15 10:00:44;;;;;;;0.50;0.40;;;;;;;31.77;18.11;98288.34;5089441;28;20027;-79
2021/10/15 10:03:10;;;;;;;1.40;0.63;;;;;;;31.34;18.09;98289.63;5090695;28;20444;-79
2021/10/15 10:05:37;;;;;;;0.90;0.52;;;;;;;30.13;19.51;98285.00;5092945;28;20392;-79
2021/10/15 10:08:04;;;;;;;0.55;0.40;;;;;;;29.72;20.27;98282.72;5079780;28;20367;-79
2021/10/15 10:10:33;;;;;;;0.35;0.35;;;;;;;30.82;19.68;98285.19;5073572;28;20070;-79
2021/10/15 10:12:59;;;;;;;0.45;0.40;;;;;;;30.71;19.11;98282.81;5074002;28;20065;-79
2021/10/15 10:15:35;;;;;;;0.35;0.30;;;;;;;31.26;18.62;98274.19;5077910;28;20028;-79
2021/10/15 10:18:17;;;;;;;0.50;0.40;;;;;;;31.04;18.17;98268.00;5073613;28;20024;-79
2021/10/15 10:20:48;;;;;;;0.50;0.50;;;;;;;31.64;18.74;98267.91;5073368;28;20412;-79
2021/10/15 10:23:38;;;;;;;0.68;0.40;;;;;;;31.90;18.48;98274.69;5083727;28;20028;-79
2021/10/15 10:26:08;;;;;;;0.63;0.50;;;;;;;32.02;18.61;98263.09;5089707;28;20020;-79
2021/10/15 10:28:35;;;;;;;0.40;0.30;;;;;;;32.16;17.42;98264.44;5081068;28;20044;-79
2021/10/15 10:31:23;;;;;;;0.52;0.40;;;;;;;32.42;17.53;98253.31;5084203;28;20501;-79
2021/10/15 10:34:10;;;;;;;0.80;0.70;;;;;;;32.63;17.33;98252.19;5071083;28;20097;-80
2021/10/15 10:36:38;;;;;;;1.00;0.73;;;;;;;31.95;17.68;98257.00;5077436;28;20032;-79
2021/10/15 10:39:20;;;;;;;0.43;0.30;;;;;;;31.83;17.69;98261.66;5082435;28;20059;-79
2021/10/15 10:42:12;;;;;;;0.40;0.40;;;;;;;31.01;18.58;98254.75;5080139;28;20081;-79
2021/10/15 10:44:58;;;;;;;0.50;0.30;;;;;;;31.69;17.94;98256.69;5087240;28;20127;-79
2021/10/15 10:47:26;;;;;;;0.52;0.30;;;;;;;31.56;18.19;98246.81;5072601;28;20032;-79
2021/10/15 10:50:08;;;;;;;0.47;0.40;;;;;;;32.12;18.18;98248.84;5079012;28;20028;-80
2021/10/15 10:52:58;;;;;;;0.68;0.40;;;;;;;32.21;17.38;98243.88;5078689;28;20082;-80
2021/10/15 10:55:43;;;;;;;0.20;0.20;;;;;;;31.84;17.32;98239.69;5077366;28;20075;-79
2021/10/15 10:58:30;;;;;;;0.65;0.40;;;;;;;31.80;17.51;98239.09;5082357;28;20016;-79
2021/10/15 11:01:26;;;;;;;0.55;0.38;;;;;;;32.12;17.11;98237.47;5085102;28;20405;-79
2021/10/15 11:03:54;;;;;;;0.60;0.40;;;;;;;32.07;17.72;98242.56;5096006;28;20146;-80
2021/10/15 11:06:20;;;;;;;0.30;0.30;;;;;;;32.61;17.63;98229.16;5092652;28;20115;-80
2021/10/15 11:08:46;;;;;;;0.32;0.30;;;;;;;32.54;16.89;98227.50;5077975;28;20032;-79
2021/10/15 11:11:22;;;;;;;0.50;0.38;;;;;;;32.00;17.50;98227.94;5076704;28;20040;-79
2021/10/15 11:13:48;;;;;;;1.13;0.77;;;;;;;31.97;19.04;98226.84;5077347;28;20086;-79
2021/10/15 11:16:30;;;;;;;0.70;0.50;;;;;;;32.69;17.21;98219.78;5087909;28;20535;-79
2021/10/15 11:18:56;;;;;;;0.30;0.30;;;;;;;32.94;16.62;98212.69;5097287;28;20062;-79
2021/10/15 11:21:23;;;;;;;0.38;0.30;;;;;;;32.78;16.89;98206.72;5083658;28;20036;-79
2021/10/15 11:23:52;;;;;;;0.50;0.40;;;;;;;33.24;16.81;98197.16;5075937;28;20064;-79
2021/10/15 11:26:30;;;;;;;0.30;0.30;;;;;;;32.95;17.06;98197.22;5076703;28;20390;-79
2021/10/15 11:28:57;;;;;;;0.32;0.32;;;;;;;33.06;16.28;98191.72;5078647;28;20066;-79
2021/10/15 11:31:23;;;;;;;1.02;0.50;;;;;;;32.23;16.74;98195.09;5095646;28;20036;-77
2021/10/15 11:33:49;;;;;;;0.25;0.25;;;;;;;32.67;17.14;98193.09;5083630;28;20194;-77
2021/10/15 11:36:21;;;;;;;0.73;0.50;;;;;;;30.89;17.86;98196.97;5085419;28;20397;-77
2021/10/15 11:38:47;;;;;;;1.00;0.30;;;;;;;31.08;17.13;98207.00;5095294;28;20024;-77
2021/10/15 11:41:13;;;;;;;0.30;0.20;;;;;;;30.68;17.70;98195.91;5091171;28;20111;-77
2021/10/15 11:43:42;;;;;;;0.75;0.32;;;;;;;31.27;17.90;98185.00;5088434;28;20381;-77
2021/10/15 11:46:21;;;;;;;0.80;0.40;;;;;;;30.75;17.75;98189.13;5085571;28;20392;-77
2021/10/15 11:48:51;;;;;;;0.50;0.38;;;;;;;30.58;18.74;98194.34;5094729;28;20043;-77
2021/10/15 11:51:19;;;;;;;;;;;;;;;30.30;18.13;98192.00;5095152;28;20036;-77